sensor_id;sensor_type;location;lat;lon;timestamp;pressure;altitude;pressure_sealevel;temperature
20103;BMP180;10210;52.284;9.892;2023-01-29T00:02:23;101730.00;;;4.50
20103;BMP180;10210;52.284;9.892;2023-01-29T00:04:48;101723.00;;;4.40
20103;BMP180;10210;52.284;9.892;2023-01-29T00:07:14;101723.00;;;4.40
20103;BMP180;10210;52.284;9.892;2023-01-29T00:09:40;101715.00;;;4.40
20103;BMP180;10210;52.284;9.892;2023-01-29T00:12:05;101714.00;;;4.40
20103;BMP180;10210;52.284;9.892;2023-01-29T00:14:33;101709.00;;;4.50
20103;BMP180;10210;52.284;9.892;2023-01-29T00:17:00;101722.00;;;4.50
20103;BMP180;10210;52.284;9.892;2023-01-29T00:19:25;101714.00;;;4.50
20103;BMP180;10210;52.284;9.892;2023-01-29T00:21:51;101716.00;;;4.50
20103;BMP180;10210;52.284;9.892;2023-01-29T00:24:17;101712.00;;;4.50
20103;BMP180;10210;52.284;9.892;2023-01-29T00:26:42;101711.00;;;4.50
20103;BMP180;10210;52.284;9.892;2023-01-29T00:29:08;101707.00;;;4.50
20103;BMP180;10210;52.284;9.892;2023-01-29T00:31:34;101709.00;;;4.50
20103;BMP180;10210;52.284;9.892;2023-01-29T00:34:00;101707.00;;;4.50
20103;BMP180;10210;52.284;9.892;2023-01-29T00:36:26;101703.00;;;4.50
20103;BMP180;10210;52.284;9.892;2023-01-29T00:38:59;101712.00;;;4.50
20103;BMP180;10210;52.284;9.892;2023-01-29T00:41:29;101699.00;;;4.50
20103;BMP180;10210;52.284;9.892;2023-01-29T00:44:14;101705.00;;;4.50
20103;BMP180;10210;52.284;9.892;2023-01-29T00:46:58;101699.00;;;4.50
20103;BMP180;10210;52.284;9.892;2023-01-29T00:49:24;101704.00;;;4.50
20103;BMP180;10210;52.284;9.892;2023-01-29T00:51:50;101700.00;;;4.50
20103;BMP180;10210;52.284;9.892;2023-01-29T00:54:35;101706.00;;;4.50
20103;BMP180;10210;52.284;9.892;2023-01-29T00:57:02;101713.00;;;4.50
20103;BMP180;10210;52.284;9.892;2023-01-29T00:59:29;101705.00;;;4.50
20103;BMP180;10210;52.284;9.892;2023-01-29T01:01:55;101706.00;;;4.60
20103;BMP180;10210;52.284;9.892;2023-01-29T01:04:40;101708.00;;;4.50
20103;BMP180;10210;52.284;9.892;2023-01-29T01:07:06;101702.00;;;4.60
20103;BMP180;10210;52.284;9.892;2023-01-29T01:09:34;101706.00;;;4.50
20103;BMP180;10210;52.284;9.892;2023-01-29T01:12:20;101704.00;;;4.50
20103;BMP180;10210;52.284;9.892;2023-01-29T01:14:46;101704.00;;;4.60
20103;BMP180;10210;52.284;9.892;2023-01-29T01:17:12;101699.00;;;4.60
20103;BMP180;10210;52.284;9.892;2023-01-29T01:19:39;101683.00;;;4.50
20103;BMP180;10210;52.284;9.892;2023-01-29T01:22:05;101687.00;;;4.60
20103;BMP180;10210;52.284;9.892;2023-01-29T01:24:31;101690.00;;;4.60
20103;BMP180;10210;52.284;9.892;2023-01-29T01:26:56;101677.00;;;4.50
20103;BMP180;10210;52.284;9.892;2023-01-29T01:29:23;101682.00;;;4.50
20103;BMP180;10210;52.284;9.892;2023-01-29T01:31:49;101684.00;;;4.50
20103;BMP180;10210;52.284;9.892;2023-01-29T01:34:15;101670.00;;;4.50
20103;BMP180;10210;52.284;9.892;2023-01-29T01:36:40;101667.00;;;4.50
20103;BMP180;10210;52.284;9.892;2023-01-29T01:39:06;101657.00;;;4.50
20103;BMP180;10210;52.284;9.892;2023-01-29T01:41:32;101657.00;;;4.40
20103;BMP180;10210;52.284;9.892;2023-01-29T01:44:03;101650.00;;;4.40
20103;BMP180;10210;52.284;9.892;2023-01-29T01:46:33;101650.00;;;4.40
20103;BMP180;10210;52.284;9.892;2023-01-29T01:49:15;101647.00;;;4.40
20103;BMP180;10210;52.284;9.892;2023-01-29T01:51:49;101653.00;;;4.40
20103;BMP180;10210;52.284;9.892;2023-01-29T01:54:37;101648.00;;;4.30
20103;BMP180;10210;52.284;9.892;2023-01-29T01:57:11;101658.00;;;4.30
20103;BMP180;10210;52.284;9.892;2023-01-29T01:59:46;101643.00;;;4.30
20103;BMP180;10210;52.284;9.892;2023-01-29T02:02:14;101652.00;;;4.30
20103;BMP180;10210;52.284;9.892;2023-01-29T02:04:59;101657.00;;;4.30
20103;BMP180;10210;52.284;9.892;2023-01-29T02:07:46;101651.00;;;4.30
20103;BMP180;10210;52.284;9.892;2023-01-29T02:10:42;101661.00;;;4.30
20103;BMP180;10210;52.284;9.892;2023-01-29T02:13:10;101661.00;;;4.30
20103;BMP180;10210;52.284;9.892;2023-01-29T02:15:37;101662.00;;;4.30
20103;BMP180;10210;52.284;9.892;2023-01-29T02:18:07;101663.00;;;4.30
20103;BMP180;10210;52.284;9.892;2023-01-29T02:20:34;101677.00;;;4.30
20103;BMP180;10210;52.284;9.892;2023-01-29T02:26:21;101680.00;;;4.20
20103;BMP180;10210;52.284;9.892;2023-01-29T02:29:52;101668.00;;;4.20
20103;BMP180;10210;52.284;9.892;2023-01-29T02:35:24;101678.00;;;4.20
20103;BMP180;10210;52.284;9.892;2023-01-29T02:38:39;101673.00;;;4.20
20103;BMP180;10210;52.284;9.892;2023-01-29T02:41:29;101684.00;;;4.20
20103;BMP180;10210;52.284;9.892;2023-01-29T02:44:16;101680.00;;;4.20
20103;BMP180;10210;52.284;9.892;2023-01-29T02:47:09;101686.00;;;4.30
20103;BMP180;10210;52.284;9.892;2023-01-29T02:49:45;101682.00;;;4.30
20103;BMP180;10210;52.284;9.892;2023-01-29T02:52:51;101693.00;;;4.30
20103;BMP180;10210;52.284;9.892;2023-01-29T02:55:48;101697.00;;;4.30
20103;BMP180;10210;52.284;9.892;2023-01-29T03:00:48;101701.00;;;4.40
20103;BMP180;10210;52.284;9.892;2023-01-29T03:03:30;101703.00;;;4.40
20103;BMP180;10210;52.284;9.892;2023-01-29T03:06:09;101688.00;;;4.40
20103;BMP180;10210;52.284;9.892;2023-01-29T03:09:00;101684.00;;;4.40
20103;BMP180;10210;52.284;9.892;2023-01-29T03:11:34;101679.00;;;4.40
20103;BMP180;10210;52.284;9.892;2023-01-29T03:14:11;101664.00;;;4.40
20103;BMP180;10210;52.284;9.892;2023-01-29T03:16:51;101661.00;;;4.50
20103;BMP180;10210;52.284;9.892;2023-01-29T03:19:31;101653.00;;;4.50
20103;BMP180;10210;52.284;9.892;2023-01-29T03:22:03;101664.00;;;4.50
20103;BMP180;10210;52.284;9.892;2023-01-29T03:24:47;101653.00;;;4.50
20103;BMP180;10210;52.284;9.892;2023-01-29T03:30:41;101655.00;;;4.50
20103;BMP180;10210;52.284;9.892;2023-01-29T03:33:30;101656.00;;;4.50
20103;BMP180;10210;52.284;9.892;2023-01-29T03:36:13;101673.00;;;4.50
20103;BMP180;10210;52.284;9.892;2023-01-29T03:38:42;101656.00;;;4.60
20103;BMP180;10210;52.284;9.892;2023-01-29T03:41:26;101651.00;;;4.60
20103;BMP180;10210;52.284;9.892;2023-01-29T03:44:11;101650.00;;;4.60
20103;BMP180;10210;52.284;9.892;2023-01-29T03:46:58;101660.00;;;4.60
20103;BMP180;10210;52.284;9.892;2023-01-29T03:49:38;101650.00;;;4.60
20103;BMP180;10210;52.284;9.892;2023-01-29T03:52:45;101634.00;;;4.60
20103;BMP180;10210;52.284;9.892;2023-01-29T03:55:38;101636.00;;;4.60
20103;BMP180;10210;52.284;9.892;2023-01-29T04:03:36;101625.00;;;4.60
20103;BMP180;10210;52.284;9.892;2023-01-29T04:06:11;101615.00;;;4.60
20103;BMP180;10210;52.284;9.892;2023-01-29T04:08:50;101625.00;;;4.60
20103;BMP180;10210;52.284;9.892;2023-01-29T04:11:21;101621.00;;;4.60
20103;BMP180;10210;52.284;9.892;2023-01-29T04:13:48;101614.00;;;4.60
20103;BMP180;10210;52.284;9.892;2023-01-29T04:16:25;101604.00;;;4.60
20103;BMP180;10210;52.284;9.892;2023-01-29T04:18:52;101600.00;;;4.60
20103;BMP180;10210;52.284;9.892;2023-01-29T04:21:19;101594.00;;;4.60
20103;BMP180;10210;52.284;9.892;2023-01-29T04:23:45;101588.00;;;4.60
20103;BMP180;10210;52.284;9.892;2023-01-29T04:29:24;101587.00;;;4.60
20103;BMP180;10210;52.284;9.892;2023-01-29T04:32:13;101579.00;;;4.60
20103;BMP180;10210;52.284;9.892;2023-01-29T04:41:49;101573.00;;;4.60
20103;BMP180;10210;52.284;9.892;2023-01-29T04:44:32;101563.00;;;4.60
20103;BMP180;10210;52.284;9.892;2023-01-29T04:47:12;101556.00;;;4.60
20103;BMP180;10210;52.284;9.892;2023-01-29T04:53:17;101545.00;;;4.60
20103;BMP180;10210;52.284;9.892;2023-01-29T04:55:55;101546.00;;;4.60
20103;BMP180;10210;52.284;9.892;2023-01-29T04:58:34;101546.00;;;4.60
20103;BMP180;10210;52.284;9.892;2023-01-29T05:01:07;101556.00;;;4.60
20103;BMP180;10210;52.284;9.892;2023-01-29T05:03:39;101550.00;;;4.70
20103;BMP180;10210;52.284;9.892;2023-01-29T05:06:08;101546.00;;;4.70
20103;BMP180;10210;52.284;9.892;2023-01-29T05:08:38;101533.00;;;4.70
20103;BMP180;10210;52.284;9.892;2023-01-29T05:11:04;101547.00;;;4.70
20103;BMP180;10210;52.284;9.892;2023-01-29T05:13:33;101535.00;;;4.70
20103;BMP180;10210;52.284;9.892;2023-01-29T05:16:17;101554.00;;;4.70
20103;BMP180;10210;52.284;9.892;2023-01-29T05:18:44;101551.00;;;4.70
20103;BMP180;10210;52.284;9.892;2023-01-29T05:21:10;101538.00;;;4.70
20103;BMP180;10210;52.284;9.892;2023-01-29T05:23:36;101544.00;;;4.70
20103;BMP180;10210;52.284;9.892;2023-01-29T05:26:02;101543.00;;;4.70
20103;BMP180;10210;52.284;9.892;2023-01-29T05:28:28;101544.00;;;4.70
20103;BMP180;10210;52.284;9.892;2023-01-29T05:30:55;101548.00;;;4.70
20103;BMP180;10210;52.284;9.892;2023-01-29T05:33:25;101550.00;;;4.70
20103;BMP180;10210;52.284;9.892;2023-01-29T05:35:53;101553.00;;;4.70
20103;BMP180;10210;52.284;9.892;2023-01-29T05:38:21;101558.00;;;4.70
20103;BMP180;10210;52.284;9.892;2023-01-29T05:40:47;101560.00;;;4.70
20103;BMP180;10210;52.284;9.892;2023-01-29T05:43:15;101564.00;;;4.80
20103;BMP180;10210;52.284;9.892;2023-01-29T05:45:42;101577.00;;;4.80
20103;BMP180;10210;52.284;9.892;2023-01-29T05:48:08;101563.00;;;4.80
20103;BMP180;10210;52.284;9.892;2023-01-29T05:50:33;101558.00;;;4.80
20103;BMP180;10210;52.284;9.892;2023-01-29T05:53:00;101564.00;;;4.80
20103;BMP180;10210;52.284;9.892;2023-01-29T05:55:27;101561.00;;;4.80
20103;BMP180;10210;52.284;9.892;2023-01-29T05:57:54;101567.00;;;4.80
20103;BMP180;10210;52.284;9.892;2023-01-29T06:00:20;101568.00;;;4.80
20103;BMP180;10210;52.284;9.892;2023-01-29T06:02:46;101566.00;;;4.80
20103;BMP180;10210;52.284;9.892;2023-01-29T06:05:12;101574.00;;;4.80
20103;BMP180;10210;52.284;9.892;2023-01-29T06:07:38;101593.00;;;4.90
20103;BMP180;10210;52.284;9.892;2023-01-29T06:10:05;101587.00;;;4.90
20103;BMP180;10210;52.284;9.892;2023-01-29T06:12:30;101582.00;;;4.90
20103;BMP180;10210;52.284;9.892;2023-01-29T06:14:56;101588.00;;;4.90
20103;BMP180;10210;52.284;9.892;2023-01-29T06:17:22;101580.00;;;4.90
20103;BMP180;10210;52.284;9.892;2023-01-29T06:19:48;101599.00;;;4.90
20103;BMP180;10210;52.284;9.892;2023-01-29T06:22:14;101600.00;;;5.00
20103;BMP180;10210;52.284;9.892;2023-01-29T06:24:39;101589.00;;;5.00
20103;BMP180;10210;52.284;9.892;2023-01-29T06:27:05;101584.00;;;5.00
20103;BMP180;10210;52.284;9.892;2023-01-29T06:29:31;101569.00;;;5.00
20103;BMP180;10210;52.284;9.892;2023-01-29T06:31:56;101571.00;;;5.00
20103;BMP180;10210;52.284;9.892;2023-01-29T06:34:23;101574.00;;;5.00
20103;BMP180;10210;52.284;9.892;2023-01-29T06:36:48;101569.00;;;5.00
20103;BMP180;10210;52.284;9.892;2023-01-29T06:39:14;101567.00;;;5.00
20103;BMP180;10210;52.284;9.892;2023-01-29T06:41:40;101579.00;;;5.00
20103;BMP180;10210;52.284;9.892;2023-01-29T06:44:06;101578.00;;;5.00
20103;BMP180;10210;52.284;9.892;2023-01-29T06:46:31;101576.00;;;5.00
20103;BMP180;10210;52.284;9.892;2023-01-29T06:48:58;101581.00;;;5.00
20103;BMP180;10210;52.284;9.892;2023-01-29T06:51:27;101583.00;;;5.00
20103;BMP180;10210;52.284;9.892;2023-01-29T06:53:52;101576.00;;;5.00
20103;BMP180;10210;52.284;9.892;2023-01-29T06:56:21;101572.00;;;5.00
20103;BMP180;10210;52.284;9.892;2023-01-29T06:58:47;101560.00;;;5.00
20103;BMP180;10210;52.284;9.892;2023-01-29T07:01:13;101572.00;;;5.00
20103;BMP180;10210;52.284;9.892;2023-01-29T07:03:38;101600.00;;;5.00
20103;BMP180;10210;52.284;9.892;2023-01-29T07:06:06;101608.00;;;5.00
20103;BMP180;10210;52.284;9.892;2023-01-29T07:08:38;101599.00;;;5.00
20103;BMP180;10210;52.284;9.892;2023-01-29T07:11:06;101593.00;;;5.00
20103;BMP180;10210;52.284;9.892;2023-01-29T07:13:32;101605.00;;;5.00
20103;BMP180;10210;52.284;9.892;2023-01-29T07:16:02;101608.00;;;5.10
20103;BMP180;10210;52.284;9.892;2023-01-29T07:18:29;101619.00;;;5.10
20103;BMP180;10210;52.284;9.892;2023-01-29T07:20:55;101606.00;;;5.10
20103;BMP180;10210;52.284;9.892;2023-01-29T07:23:22;101604.00;;;5.10
20103;BMP180;10210;52.284;9.892;2023-01-29T07:25:49;101614.00;;;5.10
20103;BMP180;10210;52.284;9.892;2023-01-29T07:28:18;101606.00;;;5.10
20103;BMP180;10210;52.284;9.892;2023-01-29T07:30:47;101590.00;;;5.10
20103;BMP180;10210;52.284;9.892;2023-01-29T07:33:12;101589.00;;;5.10
20103;BMP180;10210;52.284;9.892;2023-01-29T07:35:41;101591.00;;;5.10
20103;BMP180;10210;52.284;9.892;2023-01-29T07:38:09;101595.00;;;5.10
20103;BMP180;10210;52.284;9.892;2023-01-29T07:40:35;101574.00;;;5.10
20103;BMP180;10210;52.284;9.892;2023-01-29T07:43:04;101568.00;;;5.10
20103;BMP180;10210;52.284;9.892;2023-01-29T07:45:33;101566.00;;;5.10
20103;BMP180;10210;52.284;9.892;2023-01-29T07:47:59;101574.00;;;5.10
20103;BMP180;10210;52.284;9.892;2023-01-29T07:50:26;101575.00;;;5.10
20103;BMP180;10210;52.284;9.892;2023-01-29T07:52:55;101573.00;;;5.10
20103;BMP180;10210;52.284;9.892;2023-01-29T07:55:22;101560.00;;;5.00
20103;BMP180;10210;52.284;9.892;2023-01-29T07:57:55;101559.00;;;5.00
20103;BMP180;10210;52.284;9.892;2023-01-29T08:00:21;101550.00;;;5.00
20103;BMP180;10210;52.284;9.892;2023-01-29T08:02:47;101543.00;;;5.00
20103;BMP180;10210;52.284;9.892;2023-01-29T08:05:13;101529.00;;;5.00
20103;BMP180;10210;52.284;9.892;2023-01-29T08:07:38;101533.00;;;4.90
20103;BMP180;10210;52.284;9.892;2023-01-29T08:10:05;101530.00;;;4.90
20103;BMP180;10210;52.284;9.892;2023-01-29T08:12:30;101531.00;;;4.90
20103;BMP180;10210;52.284;9.892;2023-01-29T08:14:56;101522.00;;;4.90
20103;BMP180;10210;52.284;9.892;2023-01-29T08:17:22;101544.00;;;4.90
20103;BMP180;10210;52.284;9.892;2023-01-29T08:19:47;101545.00;;;4.90
20103;BMP180;10210;52.284;9.892;2023-01-29T08:22:13;101541.00;;;4.80
20103;BMP180;10210;52.284;9.892;2023-01-29T08:24:41;101534.00;;;4.90
20103;BMP180;10210;52.284;9.892;2023-01-29T08:27:07;101535.00;;;4.90
20103;BMP180;10210;52.284;9.892;2023-01-29T08:29:33;101525.00;;;4.90
20103;BMP180;10210;52.284;9.892;2023-01-29T08:31:59;101539.00;;;4.90
20103;BMP180;10210;52.284;9.892;2023-01-29T08:34:25;101530.00;;;4.90
20103;BMP180;10210;52.284;9.892;2023-01-29T08:36:51;101531.00;;;4.90
20103;BMP180;10210;52.284;9.892;2023-01-29T08:39:18;101535.00;;;4.90
20103;BMP180;10210;52.284;9.892;2023-01-29T08:41:44;101530.00;;;5.00
20103;BMP180;10210;52.284;9.892;2023-01-29T08:44:09;101539.00;;;5.00
20103;BMP180;10210;52.284;9.892;2023-01-29T08:46:35;101547.00;;;5.00
20103;BMP180;10210;52.284;9.892;2023-01-29T08:49:02;101536.00;;;5.00
20103;BMP180;10210;52.284;9.892;2023-01-29T08:51:27;101541.00;;;5.00
20103;BMP180;10210;52.284;9.892;2023-01-29T08:53:53;101530.00;;;5.10
20103;BMP180;10210;52.284;9.892;2023-01-29T08:56:19;101548.00;;;5.10
20103;BMP180;10210;52.284;9.892;2023-01-29T08:58:44;101537.00;;;5.10
20103;BMP180;10210;52.284;9.892;2023-01-29T09:01:12;101540.00;;;5.10
20103;BMP180;10210;52.284;9.892;2023-01-29T09:03:39;101539.00;;;5.10
20103;BMP180;10210;52.284;9.892;2023-01-29T09:06:13;101535.00;;;5.10
20103;BMP180;10210;52.284;9.892;2023-01-29T09:08:39;101520.00;;;5.10
20103;BMP180;10210;52.284;9.892;2023-01-29T09:11:05;101517.00;;;5.20
20103;BMP180;10210;52.284;9.892;2023-01-29T09:13:31;101524.00;;;5.10
20103;BMP180;10210;52.284;9.892;2023-01-29T09:16:01;101521.00;;;5.20
20103;BMP180;10210;52.284;9.892;2023-01-29T09:18:29;101528.00;;;5.20
20103;BMP180;10210;52.284;9.892;2023-01-29T09:20:56;101506.00;;;5.20
20103;BMP180;10210;52.284;9.892;2023-01-29T09:23:23;101506.00;;;5.20
20103;BMP180;10210;52.284;9.892;2023-01-29T09:25:49;101486.00;;;5.20
20103;BMP180;10210;52.284;9.892;2023-01-29T09:28:15;101482.00;;;5.20
20103;BMP180;10210;52.284;9.892;2023-01-29T09:30:42;101476.00;;;5.20
20103;BMP180;10210;52.284;9.892;2023-01-29T09:33:09;101467.00;;;5.20
20103;BMP180;10210;52.284;9.892;2023-01-29T09:35:34;101469.00;;;5.20
20103;BMP180;10210;52.284;9.892;2023-01-29T09:38:00;101474.00;;;5.30
20103;BMP180;10210;52.284;9.892;2023-01-29T09:43:39;101481.00;;;5.30
20103;BMP180;10210;52.284;9.892;2023-01-29T09:46:26;101482.00;;;5.30
20103;BMP180;10210;52.284;9.892;2023-01-29T09:49:06;101475.00;;;5.30
20103;BMP180;10210;52.284;9.892;2023-01-29T09:51:43;101467.00;;;5.30
20103;BMP180;10210;52.284;9.892;2023-01-29T09:54:20;101470.00;;;5.40
20103;BMP180;10210;52.284;9.892;2023-01-29T09:56:52;101459.00;;;5.40
20103;BMP180;10210;52.284;9.892;2023-01-29T09:59:24;101482.00;;;5.40
20103;BMP180;10210;52.284;9.892;2023-01-29T10:17:49;101450.00;;;5.50
20103;BMP180;10210;52.284;9.892;2023-01-29T10:20:46;101458.00;;;5.50
20103;BMP180;10210;52.284;9.892;2023-01-29T10:23:27;101456.00;;;5.50
20103;BMP180;10210;52.284;9.892;2023-01-29T10:25:55;101462.00;;;5.60
20103;BMP180;10210;52.284;9.892;2023-01-29T10:28:32;101451.00;;;5.60
20103;BMP180;10210;52.284;9.892;2023-01-29T10:31:07;101448.00;;;5.60
20103;BMP180;10210;52.284;9.892;2023-01-29T10:33:43;101449.00;;;5.60
20103;BMP180;10210;52.284;9.892;2023-01-29T10:36:21;101466.00;;;5.70
20103;BMP180;10210;52.284;9.892;2023-01-29T10:38:50;101468.00;;;5.70
20103;BMP180;10210;52.284;9.892;2023-01-29T10:41:41;101467.00;;;5.70
20103;BMP180;10210;52.284;9.892;2023-01-29T10:44:26;101468.00;;;5.70
20103;BMP180;10210;52.284;9.892;2023-01-29T10:47:25;101460.00;;;5.70
20103;BMP180;10210;52.284;9.892;2023-01-29T10:50:16;101450.00;;;5.70
20103;BMP180;10210;52.284;9.892;2023-01-29T10:56:40;101435.00;;;5.70
20103;BMP180;10210;52.284;9.892;2023-01-29T10:59:38;101437.00;;;5.70
20103;BMP180;10210;52.284;9.892;2023-01-29T11:02:25;101435.00;;;5.70
20103;BMP180;10210;52.284;9.892;2023-01-29T11:04:51;101418.00;;;5.70
20103;BMP180;10210;52.284;9.892;2023-01-29T11:07:20;101421.00;;;5.80
20103;BMP180;10210;52.284;9.892;2023-01-29T11:10:13;101401.00;;;5.70
20103;BMP180;10210;52.284;9.892;2023-01-29T11:12:43;101406.00;;;5.80
20103;BMP180;10210;52.284;9.892;2023-01-29T11:15:21;101397.00;;;5.80
20103;BMP180;10210;52.284;9.892;2023-01-29T11:20:30;101387.00;;;5.80
20103;BMP180;10210;52.284;9.892;2023-01-29T11:22:55;101386.00;;;5.80
20103;BMP180;10210;52.284;9.892;2023-01-29T11:25:22;101386.00;;;5.90
20103;BMP180;10210;52.284;9.892;2023-01-29T11:27:57;101381.00;;;5.90
20103;BMP180;10210;52.284;9.892;2023-01-29T11:30:40;101376.00;;;5.90
20103;BMP180;10210;52.284;9.892;2023-01-29T11:33:21;101370.00;;;6.00
20103;BMP180;10210;52.284;9.892;2023-01-29T11:35:47;101375.00;;;6.00
20103;BMP180;10210;52.284;9.892;2023-01-29T11:40:42;101368.00;;;6.10
20103;BMP180;10210;52.284;9.892;2023-01-29T11:43:31;101360.00;;;6.10
20103;BMP180;10210;52.284;9.892;2023-01-29T11:46:13;101366.00;;;6.10
20103;BMP180;10210;52.284;9.892;2023-01-29T11:48:48;101359.00;;;6.10
20103;BMP180;10210;52.284;9.892;2023-01-29T11:51:27;101358.00;;;6.10
20103;BMP180;10210;52.284;9.892;2023-01-29T11:54:01;101345.00;;;6.20
20103;BMP180;10210;52.284;9.892;2023-01-29T11:56:40;101347.00;;;6.10
20103;BMP180;10210;52.284;9.892;2023-01-29T11:59:37;101339.00;;;6.20
20103;BMP180;10210;52.284;9.892;2023-01-29T12:02:33;101341.00;;;6.20
20103;BMP180;10210;52.284;9.892;2023-01-29T12:05:14;101337.00;;;6.20
20103;BMP180;10210;52.284;9.892;2023-01-29T12:07:43;101321.00;;;6.20
20103;BMP180;10210;52.284;9.892;2023-01-29T12:13:25;101312.00;;;6.20
20103;BMP180;10210;52.284;9.892;2023-01-29T12:19:04;101305.00;;;6.30
20103;BMP180;10210;52.284;9.892;2023-01-29T12:21:45;101304.00;;;6.30
20103;BMP180;10210;52.284;9.892;2023-01-29T12:24:33;101306.00;;;6.30
20103;BMP180;10210;52.284;9.892;2023-01-29T12:27:42;101284.00;;;6.30
20103;BMP180;10210;52.284;9.892;2023-01-29T12:30:30;101280.00;;;6.30
20103;BMP180;10210;52.284;9.892;2023-01-29T12:33:29;101269.00;;;6.30
20103;BMP180;10210;52.284;9.892;2023-01-29T12:36:09;101279.00;;;6.30
20103;BMP180;10210;52.284;9.892;2023-01-29T12:38:36;101281.00;;;6.30
20103;BMP180;10210;52.284;9.892;2023-01-29T12:43:55;101277.00;;;6.30
20103;BMP180;10210;52.284;9.892;2023-01-29T12:46:28;101276.00;;;6.30
20103;BMP180;10210;52.284;9.892;2023-01-29T12:49:00;101281.00;;;6.40
20103;BMP180;10210;52.284;9.892;2023-01-29T12:51:37;101276.00;;;6.40
20103;BMP180;10210;52.284;9.892;2023-01-29T12:54:14;101285.00;;;6.40
20103;BMP180;10210;52.284;9.892;2023-01-29T12:56:50;101287.00;;;6.40
20103;BMP180;10210;52.284;9.892;2023-01-29T12:59:43;101273.00;;;6.40
20103;BMP180;10210;52.284;9.892;2023-01-29T13:02:35;101280.00;;;6.40
20103;BMP180;10210;52.284;9.892;2023-01-29T13:05:28;101270.00;;;6.40
20103;BMP180;10210;52.284;9.892;2023-01-29T13:08:06;101270.00;;;6.40
20103;BMP180;10210;52.284;9.892;2023-01-29T13:10:42;101273.00;;;6.40
20103;BMP180;10210;52.284;9.892;2023-01-29T13:13:21;101273.00;;;6.40
20103;BMP180;10210;52.284;9.892;2023-01-29T13:15:51;101263.00;;;6.40
20103;BMP180;10210;52.284;9.892;2023-01-29T13:20:59;101256.00;;;6.40
20103;BMP180;10210;52.284;9.892;2023-01-29T13:23:33;101251.00;;;6.40
20103;BMP180;10210;52.284;9.892;2023-01-29T13:26:00;101251.00;;;6.40
20103;BMP180;10210;52.284;9.892;2023-01-29T13:28:26;101241.00;;;6.40
20103;BMP180;10210;52.284;9.892;2023-01-29T13:33:41;101223.00;;;6.40
20103;BMP180;10210;52.284;9.892;2023-01-29T13:36:15;101217.00;;;6.40
20103;BMP180;10210;52.284;9.892;2023-01-29T13:38:43;101221.00;;;6.40
20103;BMP180;10210;52.284;9.892;2023-01-29T13:41:13;101208.00;;;6.40
20103;BMP180;10210;52.284;9.892;2023-01-29T13:43:42;101208.00;;;6.40
20103;BMP180;10210;52.284;9.892;2023-01-29T13:46:16;101210.00;;;6.40
20103;BMP180;10210;52.284;9.892;2023-01-29T13:48:49;101210.00;;;6.40
20103;BMP180;10210;52.284;9.892;2023-01-29T13:51:20;101204.00;;;6.40
20103;BMP180;10210;52.284;9.892;2023-01-29T13:54:00;101198.00;;;6.40
20103;BMP180;10210;52.284;9.892;2023-01-29T13:56:43;101199.00;;;6.40
20103;BMP180;10210;52.284;9.892;2023-01-29T13:59:49;101200.00;;;6.40
20103;BMP180;10210;52.284;9.892;2023-01-29T14:02:34;101197.00;;;6.40
20103;BMP180;10210;52.284;9.892;2023-01-29T14:07:59;101185.00;;;6.40
20103;BMP180;10210;52.284;9.892;2023-01-29T14:10:28;101183.00;;;6.40
20103;BMP180;10210;52.284;9.892;2023-01-29T14:15:45;101188.00;;;6.40
20103;BMP180;10210;52.284;9.892;2023-01-29T14:18:20;101178.00;;;6.40
20103;BMP180;10210;52.284;9.892;2023-01-29T14:23:41;101175.00;;;6.40
20103;BMP180;10210;52.284;9.892;2023-01-29T14:31:58;101171.00;;;6.40
20103;BMP180;10210;52.284;9.892;2023-01-29T14:34:31;101165.00;;;6.40
20103;BMP180;10210;52.284;9.892;2023-01-29T14:39:55;101154.00;;;6.40
20103;BMP180;10210;52.284;9.892;2023-01-29T14:48:03;101166.00;;;6.40
20103;BMP180;10210;52.284;9.892;2023-01-29T14:53:00;101153.00;;;6.40
20103;BMP180;10210;52.284;9.892;2023-01-29T14:55:43;101144.00;;;6.40
20103;BMP180;10210;52.284;9.892;2023-01-29T14:58:21;101137.00;;;6.30
20103;BMP180;10210;52.284;9.892;2023-01-29T15:00:54;101140.00;;;6.30
20103;BMP180;10210;52.284;9.892;2023-01-29T15:03:45;101143.00;;;6.30
20103;BMP180;10210;52.284;9.892;2023-01-29T15:06:45;101141.00;;;6.30
20103;BMP180;10210;52.284;9.892;2023-01-29T15:09:19;101154.00;;;6.30
20103;BMP180;10210;52.284;9.892;2023-01-29T15:15:15;101140.00;;;6.20
20103;BMP180;10210;52.284;9.892;2023-01-29T15:17:58;101143.00;;;6.20
20103;BMP180;10210;52.284;9.892;2023-01-29T15:20:29;101133.00;;;6.20
20103;BMP180;10210;52.284;9.892;2023-01-29T15:22:55;101146.00;;;6.20
20103;BMP180;10210;52.284;9.892;2023-01-29T15:25:21;101136.00;;;6.20
20103;BMP180;10210;52.284;9.892;2023-01-29T15:27:48;101146.00;;;6.20
20103;BMP180;10210;52.284;9.892;2023-01-29T15:30:24;101127.00;;;6.30
20103;BMP180;10210;52.284;9.892;2023-01-29T15:32:50;101126.00;;;6.20
20103;BMP180;10210;52.284;9.892;2023-01-29T15:35:39;101133.00;;;6.20
20103;BMP180;10210;52.284;9.892;2023-01-29T15:38:17;101124.00;;;6.20
20103;BMP180;10210;52.284;9.892;2023-01-29T15:40:57;101125.00;;;6.20
20103;BMP180;10210;52.284;9.892;2023-01-29T15:43:34;101109.00;;;6.20
20103;BMP180;10210;52.284;9.892;2023-01-29T15:46:06;101115.00;;;6.20
20103;BMP180;10210;52.284;9.892;2023-01-29T15:48:38;101110.00;;;6.20
20103;BMP180;10210;52.284;9.892;2023-01-29T15:51:15;101106.00;;;6.20
20103;BMP180;10210;52.284;9.892;2023-01-29T15:53:54;101111.00;;;6.20
20103;BMP180;10210;52.284;9.892;2023-01-29T15:56:26;101102.00;;;6.20
20103;BMP180;10210;52.284;9.892;2023-01-29T15:58:54;101090.00;;;6.10
20103;BMP180;10210;52.284;9.892;2023-01-29T16:01:26;101099.00;;;6.10
20103;BMP180;10210;52.284;9.892;2023-01-29T16:03:52;101099.00;;;6.20
20103;BMP180;10210;52.284;9.892;2023-01-29T16:06:20;101106.00;;;6.20
20103;BMP180;10210;52.284;9.892;2023-01-29T16:08:51;101092.00;;;6.20
20103;BMP180;10210;52.284;9.892;2023-01-29T16:11:18;101100.00;;;6.20
20103;BMP180;10210;52.284;9.892;2023-01-29T16:13:48;101094.00;;;6.20
20103;BMP180;10210;52.284;9.892;2023-01-29T16:18:42;101082.00;;;6.10
20103;BMP180;10210;52.284;9.892;2023-01-29T16:21:25;101080.00;;;6.10
20103;BMP180;10210;52.284;9.892;2023-01-29T16:23:57;101072.00;;;6.10
20103;BMP180;10210;52.284;9.892;2023-01-29T16:29:23;101062.00;;;6.10
20103;BMP180;10210;52.284;9.892;2023-01-29T16:31:54;101057.00;;;6.10